Time;durP1;ratioP1;P1;durP2;ratioP2;P2;SDS_P1;SDS_P2;PMS_P1;PMS_P2;Temp;Humidity;BMP_temperature;BMP_pressure;BME280_temperature;BME280_humidity;BME280_pressure;Samples;Min_cycle;Max_cycle;Signal;HPM_P1;HPM_P2
2021/10/27 05:03:45;;;;;;;6.82;1.92;;;21.10;56.80;;;;;;5115927;23;20057;-90
2021/10/27 05:06:12;;;;;;;4.50;1.98;;;21.10;56.80;;;;;;5019576;28;20022;-89
2021/10/27 05:08:39;;;;;;;4.90;1.90;;;21.10;56.80;;;;;;5037286;28;20048;-89
2021/10/27 05:11:05;;;;;;;3.75;1.92;;;21.10;56.60;;;;;;5022528;28;20024;-89
2021/10/27 05:13:30;;;;;;;3.05;2.00;;;21.10;56.60;;;;;;5023570;28;20045;-90
2021/10/27 05:15:56;;;;;;;3.53;1.80;;;21.20;56.60;;;;;;5044478;28;20029;-91
2021/10/27 05:18:22;;;;;;;5.05;2.10;;;21.10;56.60;;;;;;5025984;28;20105;-90
2021/10/27 05:20:48;;;;;;;4.15;2.20;;;21.20;56.60;;;;;;5040580;28;20053;-90
2021/10/27 05:23:14;;;;;;;5.07;2.15;;;21.20;56.60;;;;;;5042944;28;20386;-89
2021/10/27 05:25:40;;;;;;;4.35;2.03;;;21.10;56.60;;;;;;5044511;28;20014;-90
2021/10/27 05:28:06;;;;;;;4.03;2.10;;;21.20;56.60;;;;;;5047304;28;20022;-88
2021/10/27 05:30:32;;;;;;;2.85;2.00;;;21.20;56.50;;;;;;5045814;28;20083;-91
2021/10/27 05:32:59;;;;;;;5.03;2.17;;;21.20;56.50;;;;;;5010885;28;20025;-90
2021/10/27 05:35:26;;;;;;;4.18;1.95;;;21.20;56.50;;;;;;5016042;28;20029;-88
2021/10/27 05:37:52;;;;;;;6.10;2.15;;;21.20;56.50;;;;;;5027625;28;20017;-89
2021/10/27 05:40:18;;;;;;;6.82;2.47;;;21.20;56.40;;;;;;5024117;28;20018;-89
2021/10/27 05:42:45;;;;;;;4.38;2.10;;;21.20;56.40;;;;;;5004142;28;20028;-93
2021/10/27 05:45:11;;;;;;;5.45;1.70;;;21.20;56.40;;;;;;5038752;28;20040;-89
2021/10/27 05:47:42;;;;;;;6.68;2.05;;;21.20;56.40;;;;;;5032395;28;20026;-88
2021/10/27 05:50:23;;;;;;;4.82;2.25;;;21.30;56.40;;;;;;5045722;28;20040;-89
2021/10/27 05:55:34;;;;;;;3.80;2.00;;;21.20;56.40;;;;;;5026794;28;20041;-90
2021/10/27 05:58:01;;;;;;;4.90;2.13;;;21.20;56.40;;;;;;5022274;28;20028;-85
2021/10/27 06:00:28;;;;;;;5.50;2.45;;;21.20;56.30;;;;;;5020960;28;20140;-84
2021/10/27 06:02:54;;;;;;;4.38;2.05;;;21.20;56.10;;;;;;5021624;28;20060;-84
2021/10/27 06:05:20;;;;;;;6.32;2.60;;;21.20;56.00;;;;;;5021074;28;20033;-85
2021/10/27 06:07:46;;;;;;;5.70;2.53;;;21.20;56.10;;;;;;5039415;28;20032;-84
2021/10/27 06:11:36;;;;;;;5.80;2.42;;;21.20;56.10;;;;;;5005512;28;20063;-84
2021/10/27 06:14:26;;;;;;;7.72;2.70;;;21.20;56.10;;;;;;5022709;28;20040;-84
2021/10/27 06:16:54;;;;;;;7.93;2.40;;;21.10;56.30;;;;;;4981268;28;20042;-85
2021/10/27 06:19:20;;;;;;;7.05;2.20;;;21.10;56.60;;;;;;4982117;28;20045;-86
2021/10/27 06:21:58;;;;;;;5.32;2.45;;;21.10;56.60;;;;;;4964651;28;20065;-85
2021/10/27 06:24:29;;;;;;;5.00;2.20;;;21.10;56.50;;;;;;4992057;23;20046;-72
2021/10/27 06:26:57;;;;;;;3.90;2.40;;;21.10;56.50;;;;;;4977277;28;20026;-71
2021/10/27 06:29:40;;;;;;;6.70;2.72;;;21.20;56.50;;;;;;4993400;28;20101;-71
2021/10/27 06:32:24;;;;;;;7.43;2.50;;;21.20;56.40;;;;;;4993093;28;20047;-71
2021/10/27 06:35:02;;;;;;;8.25;2.65;;;21.20;56.40;;;;;;4994527;28;20054;-72
2021/10/27 06:48:09;;;;;;;4.43;2.40;;;21.20;56.20;;;;;;4992663;28;20157;-71
2021/10/27 06:50:35;;;;;;;5.80;2.50;;;21.20;56.80;;;;;;4992414;28;20057;-71
2021/10/27 06:53:02;;;;;;;9.80;2.75;;;21.20;56.20;;;;;;4993606;28;20073;-70
2021/10/27 06:55:43;;;;;;;7.00;2.60;;;21.20;56.20;;;;;;4993773;28;20098;-70
2021/10/27 06:58:10;;;;;;;8.82;2.55;;;21.30;56.20;;;;;;4992144;28;20037;-71
2021/10/27 07:03:14;;;;;;;5.65;2.50;;;21.30;56.20;;;;;;4993593;28;20058;-71
2021/10/27 07:16:21;;;;;;;15.05;4.22;;;21.30;56.10;;;;;;4992393;28;20128;-68
2021/10/27 07:18:50;;;;;;;14.93;4.45;;;21.30;56.10;;;;;;4992152;28;20022;-63
2021/10/27 07:21:16;;;;;;;25.23;5.28;;;21.30;56.40;;;;;;4993922;28;20085;-65
2021/10/27 07:23:42;;;;;;;15.90;4.85;;;21.30;56.70;;;;;;4992384;28;20472;-62
2021/10/27 07:26:08;;;;;;;18.23;5.25;;;21.30;56.80;;;;;;4993428;28;20481;-66
2021/10/27 07:28:35;;;;;;;13.43;4.95;;;21.30;56.90;;;;;;4991731;28;20445;-63
2021/10/27 07:31:03;;;;;;;11.68;5.47;;;21.30;57.10;;;;;;4993232;28;20026;-64
2021/10/27 07:33:29;;;;;;;12.20;5.88;;;21.30;57.10;;;;;;4993672;28;20053;-66
2021/10/27 07:36:24;;;;;;;14.40;6.28;;;21.30;56.90;;;;;;4993662;28;20122;-64
2021/10/27 07:41:34;;;;;;;13.30;5.57;;;21.20;57.30;;;;;;4993909;28;20037;-72
2021/10/27 07:44:15;;;;;;;10.60;5.78;;;21.20;57.40;;;;;;4993996;28;20026;-63
2021/10/27 07:46:44;;;;;;;11.48;6.15;;;21.20;57.10;;;;;;4993569;28;20011;-69
2021/10/27 07:49:10;;;;;;;11.90;5.78;;;21.20;57.10;;;;;;4992282;28;20026;-69
2021/10/27 07:51:36;;;;;;;17.20;5.90;;;21.20;57.20;;;;;;4992036;28;20492;-68
2021/10/27 07:54:04;;;;;;;21.35;7.07;;;21.20;57.10;;;;;;4991719;28;20023;-67
2021/10/27 07:56:32;;;;;;;15.52;6.32;;;21.30;56.80;;;;;;4992362;28;20033;-69
2021/10/27 07:58:59;;;;;;;11.82;5.90;;;21.30;56.70;;;;;;4960001;28;20026;-65
2021/10/27 08:01:25;;;;;;;12.68;6.53;;;21.30;56.50;;;;;;4992131;28;20006;-68
2021/10/27 08:03:51;;;;;;;13.95;6.03;;;21.20;56.50;;;;;;4991513;28;20027;-67
2021/10/27 08:06:19;;;;;;;11.65;5.90;;;21.20;56.40;;;;;;4976533;28;20412;-67
2021/10/27 08:08:44;;;;;;;11.10;5.25;;;21.30;56.20;;;;;;4993530;28;20021;-67
2021/10/27 08:11:14;;;;;;;10.30;5.90;;;21.30;56.30;;;;;;4992318;28;20456;-67
2021/10/27 08:13:40;;;;;;;11.30;4.85;;;21.30;56.30;;;;;;4992412;28;20061;-67
2021/10/27 08:16:10;;;;;;;12.55;4.97;;;21.30;56.40;;;;;;4991887;28;20022;-67
2021/10/27 08:18:36;;;;;;;10.27;5.63;;;21.20;56.40;;;;;;4991209;28;20034;-67
2021/10/27 08:21:01;;;;;;;12.30;6.22;;;21.20;56.20;;;;;;4991662;28;20015;-69
2021/10/27 08:23:31;;;;;;;11.20;5.60;;;21.10;56.80;;;;;;4974873;28;20453;-66
2021/10/27 08:26:01;;;;;;;12.68;5.72;;;21.20;57.10;;;;;;4974875;28;20029;-64
2021/10/27 08:28:41;;;;;;;15.30;5.43;;;21.20;57.60;;;;;;4991240;28;20034;-63
2021/10/27 08:36:07;;;;;;;10.07;5.22;;;21.20;58.50;;;;;;4992180;28;20039;-62
2021/10/27 08:38:35;;;;;;;11.18;6.10;;;21.20;58.90;;;;;;4992122;28;20495;-62
2021/10/27 08:41:02;;;;;;;9.57;6.30;;;21.30;58.90;;;;;;4991205;28;20022;-63
2021/10/27 08:43:28;;;;;;;17.08;5.68;;;21.30;58.50;;;;;;4991167;28;20034;-66
2021/10/27 08:45:54;;;;;;;9.75;5.65;;;21.30;59.00;;;;;;4991041;28;20022;-64
2021/10/27 08:48:20;;;;;;;9.82;5.82;;;21.30;59.20;;;;;;4990831;28;20010;-65
2021/10/27 08:50:46;;;;;;;13.30;5.03;;;21.40;59.30;;;;;;4992743;28;20025;-61
2021/10/27 08:53:17;;;;;;;11.07;5.78;;;21.40;59.40;;;;;;4992813;28;20057;-63
2021/10/27 08:55:45;;;;;;;11.05;5.88;;;21.40;59.00;;;;;;4992469;28;20022;-62
2021/10/27 08:58:16;;;;;;;15.38;6.22;;;21.50;59.20;;;;;;4992527;28;20052;-61
2021/10/27 09:00:52;;;;;;;11.93;6.03;;;21.60;59.30;;;;;;4990546;28;20011;-65
2021/10/27 09:06:17;;;;;;;13.77;6.65;;;21.70;59.10;;;;;;4991631;28;20018;-66
2021/10/27 09:33:58;;;;;;;9.80;6.15;;;21.30;56.60;;;;;;4995265;28;20097;-64
2021/10/27 09:36:47;;;;;;;10.75;5.88;;;21.30;56.40;;;;;;4994817;28;20038;-63
2021/10/27 09:41:47;;;;;;;11.38;5.63;;;21.30;56.80;;;;;;4995503;28;20508;-67
2021/10/27 10:06:19;;;;;;;10.80;4.88;;;21.20;55.60;;;;;;4995093;28;20120;-68
2021/10/27 10:08:45;;;;;;;13.57;6.10;;;21.10;55.70;;;;;;4977501;28;20023;-67
2021/10/27 10:11:20;;;;;;;9.93;4.90;;;21.10;55.40;;;;;;4979065;28;20023;-67
2021/10/27 10:13:45;;;;;;;9.57;5.00;;;21.10;55.50;;;;;;4978353;28;20027;-68
2021/10/27 10:16:13;;;;;;;10.15;4.72;;;21.10;55.30;;;;;;4994036;28;20026;-68
2021/10/27 10:18:39;;;;;;;7.72;4.93;;;21.10;55.60;;;;;;4994066;28;20018;-59
2021/10/27 10:21:05;;;;;;;7.55;4.90;;;21.00;55.40;;;;;;4995488;28;20030;-59
2021/10/27 10:23:31;;;;;;;13.02;5.13;;;21.00;55.50;;;;;;4994059;28;20042;-59
2021/10/27 10:26:08;;;;;;;8.38;4.60;;;21.00;55.30;;;;;;4995330;28;20021;-59
2021/10/27 10:28:41;;;;;;;9.70;4.68;;;21.00;55.20;;;;;;4995036;28;20049;-67
2021/10/27 10:31:08;;;;;;;9.00;4.57;;;21.00;55.30;;;;;;4995287;28;20114;-67
2021/10/27 10:33:45;;;;;;;7.53;4.75;;;21.00;55.30;;;;;;4995276;28;20034;-67
2021/10/27 10:36:28;;;;;;;8.75;4.93;;;21.10;55.10;;;;;;4995154;28;20065;-67
2021/10/27 11:40:37;;;;;;;8.13;5.38;;;20.80;55.30;;;;;;5033166;28;20024;-67
2021/10/27 11:43:18;;;;;;;8.82;4.32;;;20.80;55.00;;;;;;5033079;28;20029;-68
2021/10/27 11:48:23;;;;;;;8.07;4.95;;;20.80;55.10;;;;;;5033210;28;20021;-67
2021/10/27 11:50:49;;;;;;;7.93;5.50;;;20.90;55.20;;;;;;5033376;28;20112;-67
2021/10/27 11:53:31;;;;;;;6.88;5.00;;;20.80;55.00;;;;;;5032986;28;20022;-67
2021/10/27 11:56:13;;;;;;;8.40;5.38;;;20.90;55.00;;;;;;5015660;28;20480;-68
2021/10/27 11:58:42;;;;;;;11.23;6.90;;;20.80;55.00;;;;;;5015263;28;20048;-67
2021/10/27 12:01:33;;;;;;;9.68;5.70;;;20.80;55.00;;;;;;5033196;28;20015;-67
2021/10/27 12:04:06;;;;;;;9.38;6.22;;;20.80;55.10;;;;;;5033174;28;20022;-67
2021/10/27 12:14:21;;;;;;;10.00;6.80;;;20.70;55.40;;;;;;5033132;28;20059;-67
2021/10/27 12:19:31;;;;;;;10.90;6.70;;;20.70;55.50;;;;;;5033250;28;20044;-67
2021/10/27 12:22:03;;;;;;;10.85;7.03;;;20.70;55.50;;;;;;5015895;28;20009;-67
2021/10/27 12:24:34;;;;;;;12.93;6.70;;;20.60;55.60;;;;;;5015887;28;20030;-67
2021/10/27 12:27:17;;;;;;;9.85;6.90;;;20.60;55.80;;;;;;5033470;28;20018;-67
2021/10/27 12:29:43;;;;;;;12.30;7.45;;;20.60;55.80;;;;;;5017441;28;20026;-67
2021/10/27 12:32:13;;;;;;;11.73;6.93;;;20.60;55.80;;;;;;5016184;28;20013;-68
2021/10/27 12:34:52;;;;;;;8.82;6.93;;;20.60;55.70;;;;;;5016004;28;20013;-67
2021/10/27 12:37:31;;;;;;;9.82;7.05;;;20.70;55.60;;;;;;5032739;28;20461;-67
2021/10/27 12:40:30;;;;;;;9.20;6.57;;;20.70;55.70;;;;;;5014826;28;20025;-67
2021/10/27 12:43:16;;;;;;;9.75;6.80;;;20.70;55.70;;;;;;5035591;28;20025;-67
2021/10/27 12:45:50;;;;;;;8.65;6.45;;;20.70;55.70;;;;;;5036620;28;20037;-67
2021/10/27 12:48:21;;;;;;;8.02;6.53;;;20.70;55.80;;;;;;5018901;28;20071;-67
2021/10/27 12:50:58;;;;;;;10.65;6.70;;;20.70;55.80;;;;;;5036546;28;20010;-67
2021/10/27 12:53:46;;;;;;;9.13;6.57;;;20.70;55.70;;;;;;5036607;28;20018;-67
2021/10/27 12:56:23;;;;;;;8.82;6.10;;;20.80;55.70;;;;;;5036106;28;20026;-67
2021/10/27 12:58:53;;;;;;;8.10;6.43;;;20.70;55.60;;;;;;5018601;28;20518;-67
2021/10/27 13:07:36;;;;;;;12.63;7.10;;;20.80;55.70;;;;;;5036116;28;20017;-67
2021/10/27 13:15:32;;;;;;;9.63;6.40;;;20.80;55.60;;;;;;5036106;28;20034;-67
2021/10/27 13:20:58;;;;;;;9.55;5.10;;;20.80;55.40;;;;;;5035855;28;20506;-67
2021/10/27 13:23:40;;;;;;;11.52;5.25;;;20.90;55.00;;;;;;5022624;28;20046;-67
2021/10/27 13:31:35;;;;;;;9.57;4.68;;;20.80;54.80;;;;;;5035581;28;20518;-67
2021/10/27 13:34:08;;;;;;;7.32;4.50;;;20.80;54.70;;;;;;5019265;28;20071;-67
2021/10/27 13:36:33;;;;;;;5.53;3.80;;;20.90;54.60;;;;;;5035696;28;20156;-67
2021/10/27 13:39:03;;;;;;;8.70;3.88;;;20.90;54.20;;;;;;5035758;28;20425;-67
2021/10/27 13:41:29;;;;;;;11.05;4.47;;;20.90;54.00;;;;;;5035498;28;20491;-68
2021/10/27 13:44:02;;;;;;;5.63;3.30;;;20.90;53.90;;;;;;5035736;28;20022;-68
2021/10/27 13:46:39;;;;;;;10.93;4.20;;;21.00;53.90;;;;;;5002399;28;20017;-67
2021/10/27 14:08:24;;;;;;;8.48;2.92;;;21.30;52.30;;;;;;5035213;28;20063;-67
2021/10/27 14:11:01;;;;;;;4.40;3.00;;;21.30;51.90;;;;;;5035105;28;20101;-68
2021/10/27 14:40:15;;;;;;;4.50;2.13;;;21.30;51.30;;;;;;5005596;28;20099;-67
2021/10/27 15:20:51;;;;;;;2.88;1.65;;;22.00;49.40;;;;;;5034032;28;20103;-68
2021/10/27 15:23:28;;;;;;;4.07;1.70;;;22.00;49.50;;;;;;5017857;28;20092;-68
2021/10/27 15:28:49;;;;;;;4.72;1.75;;;22.20;49.30;;;;;;5033453;28;20029;-68
2021/10/27 15:31:42;;;;;;;4.85;1.30;;;22.30;49.20;;;;;;5033565;28;20471;-68
2021/10/27 15:37:17;;;;;;;3.67;1.63;;;22.30;49.10;;;;;;4972432;28;20134;-68
2021/10/27 15:42:53;;;;;;;3.00;1.63;;;22.30;49.20;;;;;;4959118;28;20508;-68
2021/10/27 15:50:56;;;;;;;3.75;1.67;;;22.30;49.20;;;;;;4958945;28;20034;-67
2021/10/27 15:53:22;;;;;;;3.55;1.73;;;22.40;49.20;;;;;;4972207;28;20030;-68
2021/10/27 15:55:54;;;;;;;4.57;1.58;;;22.40;49.10;;;;;;4972111;28;20489;-67
2021/10/27 15:58:19;;;;;;;4.68;1.75;;;22.40;49.00;;;;;;4972237;28;20022;-68
2021/10/27 16:00:46;;;;;;;2.75;1.67;;;22.40;49.10;;;;;;4972066;28;20191;-68
2021/10/27 16:03:15;;;;;;;4.00;1.70;;;22.40;49.20;;;;;;4956081;28;20541;-67
2021/10/27 16:05:41;;;;;;;2.97;1.30;;;22.30;49.40;;;;;;4972056;28;20043;-67
2021/10/27 16:08:07;;;;;;;4.97;1.95;;;22.30;49.60;;;;;;4972112;28;20019;-67
2021/10/27 16:10:35;;;;;;;4.40;1.50;;;22.20;49.90;;;;;;4974882;28;20107;-67
2021/10/27 16:13:01;;;;;;;5.05;1.63;;;22.10;50.10;;;;;;5032753;28;20511;-67
2021/10/27 16:18:06;;;;;;;4.05;1.85;;;22.00;50.50;;;;;;5032660;28;20022;-68
2021/10/27 16:20:34;;;;;;;4.03;1.83;;;21.90;51.00;;;;;;5033152;28;20018;-68
2021/10/27 16:23:00;;;;;;;4.22;1.42;;;21.90;51.20;;;;;;5032499;28;20041;-68
2021/10/27 16:25:26;;;;;;;5.90;1.77;;;21.80;51.40;;;;;;5015256;28;20021;-68
2021/10/27 16:27:52;;;;;;;4.75;1.92;;;21.70;51.80;;;;;;5032745;28;20009;-68
2021/10/27 16:30:18;;;;;;;3.78;1.83;;;21.70;52.10;;;;;;5032858;28;20029;-67
2021/10/27 16:32:45;;;;;;;5.22;1.70;;;21.60;52.10;;;;;;5032823;28;20093;-68
2021/10/27 16:35:11;;;;;;;6.18;2.20;;;21.60;52.30;;;;;;5032723;28;20029;-68
2021/10/27 16:37:37;;;;;;;5.32;2.00;;;21.60;52.70;;;;;;5032493;28;20021;-68
2021/10/27 16:40:04;;;;;;;4.90;1.80;;;21.50;52.70;;;;;;5032834;28;20041;-68
2021/10/27 16:42:31;;;;;;;5.15;2.00;;;21.50;52.70;;;;;;5032682;28;20021;-67
2021/10/27 16:44:57;;;;;;;4.15;1.85;;;21.50;53.00;;;;;;5015246;28;20026;-67
2021/10/27 16:47:23;;;;;;;4.15;1.90;;;21.40;53.10;;;;;;5014764;28;20048;-67
2021/10/27 16:49:50;;;;;;;5.45;2.28;;;21.40;53.20;;;;;;5032673;28;20022;-68
2021/10/27 16:52:16;;;;;;;4.88;2.17;;;21.40;53.30;;;;;;5015225;28;20053;-67
2021/10/27 16:54:42;;;;;;;4.38;1.80;;;21.40;53.30;;;;;;5032382;28;20072;-68
2021/10/27 16:57:08;;;;;;;5.95;2.00;;;21.30;53.60;;;;;;4998555;28;20025;-67
2021/10/27 16:59:35;;;;;;;5.25;1.90;;;21.30;53.70;;;;;;5032570;28;20018;-68
2021/10/27 17:02:01;;;;;;;6.60;2.15;;;21.30;53.90;;;;;;5015003;28;20077;-67
